Airfield :
LOGIN :

Register | Disclaimer

   EN    FR    IT 

 










Legend :    VFR   Marginal VFR   IFR   Intensive IFR   Very Intensive IFR
Visi :
Ceiling :
>= 8 km
>= 3000ft
5 to 8 km
1000 to 3000 ft
1500m to 5 km
500 to 1000 ft
800 to 1500m
200 to 500 ft
< 800m
< 200 ft
Symbols :   Thunderstorms  Fog  Heavy snow  Heavy precipitations  Wind > 20 kt
SIGMETs :     Misc.  Thunderstorms  Icing  Turbulence  Mountain Waves  Volcanic Ashes







- Airport Elevation : 16 ft
- IATA code : SDR


LEXJ - Santander Cantabria

CURRENT METAR :
  • 241530Z 04007KT 010V090 9000 FEW016 BKN024 19/18 Q1015

EXPIRED METARs :
  • 241500Z 04006KT 360V090 9000 FEW015 BKN020 20/17 Q1014
  • 241400Z 05007KT 010V090 9000 FEW014 SCT019 20/17 Q1015
  • 241330Z 05006KT 360V080 9999 FEW014 SCT019 20/18 Q1015
  • 241300Z 05008KT 010V080 9999 FEW018 SCT024 20/17 Q1015

TAF TAF LEXJ
Valid from the 24 at 09:00 until the 25 at 09:00 UTC


240800Z 2409/2509 VRB06KT 9000 FEW020 TX21/2414Z TN16/2505Z
TEMPO 2411/2419 02010KT
PROB40
TEMPO 2413/2421 SHRA SCT035TCU
TEMPO 2421/2509 SHRA SCT030TCU
PROB40
TEMPO 2413/2422 3000 TSRA BKN010 SCT025CB
TEMPO 2422/2508 3000 BR
PROB30
TEMPO 2504/2507 1400 BCFG BKN005
No reported NOTAMs for that airfield.
1 SIGMET reported for the Madrid FIR (LECM) :
 
Embedded thunderstorms
LECM SIGMET 12 VALID 241500/241800 LEVA
LECM MADRID FIR/UIR EMBD TS FCST WI N3740 W00710 - N3740 W00320 - N4120 W00150 - N4320 W00210 - N4320 W00810 - N42 W00910 - N4150 W00610 - N3740 W00710 TOP FL340 MOV N 15KT NC=



MET'MAP, your aeronautical weather chart ! - Copyright ORBIFLY December 2007 - Disclaimer

ORBIFLY MET'MAP TEAM :

Programming & Development : Alexandra Zaïnal
Concept & Development : Baudouin d'Aumeries
Co-Development & Prog : Marc-Olivier Méhu
Technical & hardware support : Manuel Goepfert

Contact : metmap@orbifly.com




SOURCES & CREDITS :

   NOAA